createdAt,value
2023-05-14T00:00:57.380Z,96072.34
2023-05-14T00:01:58.913Z,96077.66
2023-05-14T00:03:00.644Z,96075.84
2023-05-14T00:04:03.669Z,96072.72
2023-05-14T00:05:05.815Z,96070.06
2023-05-14T00:06:09.233Z,96071.91
2023-05-14T00:07:11.514Z,96066.38
2023-05-14T00:08:13.215Z,96069.06
2023-05-14T00:09:14.659Z,96062.25
2023-05-14T00:10:17.572Z,96068.25
2023-05-14T00:11:19.466Z,96065.56
2023-05-14T00:12:20.929Z,96067.38
2023-05-14T00:13:22.430Z,96071.53
2023-05-14T00:14:24.059Z,96070.06
2023-05-14T00:15:25.558Z,96063.72
2023-05-14T00:16:27.160Z,96061.66
2023-05-14T00:17:28.814Z,96063.72
2023-05-14T00:18:30.422Z,96051.38
2023-05-14T00:19:32.136Z,96059.59
2023-05-14T00:20:33.633Z,96052.38
2023-05-14T00:21:35.162Z,96059.19
2023-05-14T00:22:37.225Z,96056.50
2023-05-14T00:23:39.020Z,96059.19
2023-05-14T00:24:40.473Z,96054.88
2023-05-14T00:25:41.985Z,96054.03
2023-05-14T00:26:43.755Z,96051.56
2023-05-14T00:27:45.355Z,96057.97
2023-05-14T00:28:47.243Z,96053.03
2023-05-14T00:29:48.955Z,96049.56
2023-05-14T00:30:50.952Z,96048.72
2023-05-14T00:31:52.758Z,96045.22
2023-05-14T00:32:54.828Z,96047.69
2023-05-14T00:33:56.394Z,96049.56
2023-05-14T00:34:58.160Z,96052.22
2023-05-14T00:35:59.610Z,96044.22
2023-05-14T00:37:01.859Z,96043.38
2023-05-14T00:38:03.733Z,96044.22
2023-05-14T00:39:05.344Z,96038.88
2023-05-14T00:40:08.555Z,96041.53
2023-05-14T00:41:10.507Z,96036.19
2023-05-14T00:42:11.983Z,96034.16
2023-05-14T00:43:13.498Z,96043.16
2023-05-14T00:44:15.036Z,96037.00
2023-05-14T00:45:16.617Z,96037.00
2023-05-14T00:46:18.189Z,96030.88
2023-05-14T00:47:20.137Z,96032.69
2023-05-14T00:48:23.007Z,96034.16
2023-05-14T00:49:25.582Z,96030.66
2023-05-14T00:50:27.597Z,96024.88
2023-05-14T00:51:29.685Z,96032.88
2023-05-14T00:52:32.060Z,96026.94
2023-05-14T00:53:34.027Z,96022.63
2023-05-14T00:54:36.436Z,96028.38
2023-05-14T00:55:38.411Z,96028.75
2023-05-14T00:56:40.179Z,96021.59
2023-05-14T00:57:42.147Z,96026.09
2023-05-14T00:58:43.694Z,96024.28
2023-05-14T00:59:45.504Z,96039.44
2023-05-14T01:00:47.025Z,96024.28
2023-05-14T01:01:48.542Z,96027.09
2023-05-14T01:02:50.108Z,96024.44
2023-05-14T01:03:53.452Z,96016.63
2023-05-14T01:04:56.012Z,96021.16
2023-05-14T01:06:18.827Z,96020.50
2023-05-14T01:07:31.923Z,96017.66
2023-05-14T01:08:59.549Z,96020.50
2023-05-14T01:10:07.966Z,96014.34
2023-05-14T01:11:34.677Z,96011.88
2023-05-14T01:13:10.754Z,96018.03
2023-05-14T01:14:28.222Z,96016.22
2023-05-14T01:15:34.622Z,96015.78
2023-05-14T01:16:38.084Z,96017.19
2023-05-14T01:17:47.799Z,96012.84
2023-05-14T01:18:53.148Z,96019.03
2023-05-14T01:19:55.449Z,96020.84
2023-05-14T01:20:56.994Z,96016.38
2023-05-14T01:21:58.621Z,96019.03
2023-05-14T01:23:00.284Z,96024.16
2023-05-14T01:24:02.183Z,96019.66
2023-05-14T01:25:05.088Z,96008.34
2023-05-14T01:26:06.841Z,96006.91
2023-05-14T01:27:26.082Z,96009.56
2023-05-14T01:28:34.227Z,96008.94
2023-05-14T01:29:38.961Z,96010.97
2023-05-14T01:30:46.165Z,96009.75
2023-05-14T01:31:50.926Z,96011.59
2023-05-14T01:32:56.674Z,96012.63
2023-05-14T01:34:00.196Z,96007.50
2023-05-14T01:35:02.645Z,96005.63
2023-05-14T01:36:05.220Z,96019.78
2023-05-14T01:37:08.398Z,96012.63
2023-05-14T01:38:12.245Z,96007.91
2023-05-14T01:39:15.223Z,96015.31
2023-05-14T01:40:17.407Z,96013.44
2023-05-14T01:41:19.555Z,96014.25
2023-05-14T01:42:21.968Z,96009.97
2023-05-14T01:43:24.189Z,96016.13
2023-05-14T01:44:26.082Z,96007.91
2023-05-14T01:45:27.715Z,96007.09
2023-05-14T01:46:33.352Z,96006.25
2023-05-14T01:47:35.014Z,96002.78
2023-05-14T01:48:37.789Z,96008.94
2023-05-14T01:49:39.548Z,96006.25
2023-05-14T01:50:41.540Z,96009.13
2023-05-14T01:51:42.990Z,96006.25
2023-05-14T01:52:44.663Z,96003.59
2023-05-14T01:53:46.253Z,96004.44
2023-05-14T01:54:48.405Z,96004.63
2023-05-14T01:55:50.245Z,96009.13
2023-05-14T01:56:52.181Z,96008.72
2023-05-14T01:57:54.172Z,96001.50
2023-05-14T01:58:57.081Z,96003.38
2023-05-14T01:59:58.940Z,96005.00
2023-05-14T02:01:03.613Z,96000.69
2023-05-14T02:02:05.271Z,95998.22
2023-05-14T02:03:06.771Z,96000.44
2023-05-14T02:04:09.021Z,96000.44
2023-05-14T02:05:12.051Z,96004.53
2023-05-14T02:06:13.742Z,96001.22
2023-05-14T02:07:15.307Z,96007.59
2023-05-14T02:08:16.800Z,96003.47
2023-05-14T02:09:18.336Z,96008.53
2023-05-14T02:10:19.855Z,96001.75
2023-05-14T02:11:24.889Z,96002.34
2023-05-14T02:12:26.425Z,96002.72
2023-05-14T02:13:28.161Z,96000.78
2023-05-14T02:14:30.987Z,96008.38
2023-05-14T02:15:32.529Z,96004.22
2023-05-14T02:16:34.134Z,96008.31
2023-05-14T02:17:35.775Z,96005.56
2023-05-14T02:18:37.297Z,95997.50
2023-05-14T02:19:38.780Z,96003.63
2023-05-14T02:20:40.795Z,96001.50
2023-05-14T02:21:42.309Z,95999.41
2023-05-14T02:22:46.024Z,96002.81
2023-05-14T02:23:49.397Z,96000.75
2023-05-14T02:24:51.383Z,96004.19
2023-05-14T02:25:53.050Z,95998.78
2023-05-14T02:26:54.652Z,95998.50
2023-05-14T02:27:56.166Z,96002.75
2023-05-14T02:28:58.068Z,95996.75
2023-05-14T02:30:00.779Z,96002.28
2023-05-14T02:31:02.405Z,96002.28
2023-05-14T02:32:04.109Z,95999.19
2023-05-14T02:33:05.919Z,95997.91
2023-05-14T02:34:07.535Z,95998.91
2023-05-14T02:35:09.553Z,96007.91
2023-05-14T02:36:12.102Z,95998.91
2023-05-14T02:37:13.679Z,95999.91
2023-05-14T02:38:15.214Z,96006.91
2023-05-14T02:39:16.768Z,96005.91
2023-05-14T02:40:20.395Z,96003.84
2023-05-14T02:41:21.948Z,96005.53
2023-05-14T02:42:23.402Z,96004.31
2023-05-14T02:43:24.921Z,96013.78
2023-05-14T02:44:26.941Z,96010.72
2023-05-14T02:45:28.400Z,96013.22
2023-05-14T02:46:31.876Z,96010.34
2023-05-14T02:47:34.837Z,96014.28
2023-05-14T02:48:38.410Z,96020.69
2023-05-14T02:49:41.490Z,96011.50
2023-05-14T02:50:43.179Z,96010.50
2023-05-14T02:51:44.918Z,96019.78
2023-05-14T02:52:46.518Z,96009.53
2023-05-14T02:53:48.272Z,96015.53
2023-05-14T02:54:49.921Z,96011.84
2023-05-14T02:55:51.406Z,96009.63
2023-05-14T02:56:53.006Z,96018.25
2023-05-14T02:57:54.601Z,96016.22
2023-05-14T02:58:56.170Z,96017.06
2023-05-14T02:59:58.300Z,96016.03
2023-05-14T03:01:00.315Z,96011.53
2023-05-14T03:02:02.796Z,96018.50
2023-05-14T03:03:05.111Z,96019.53
2023-05-14T03:04:07.716Z,96019.34
2023-05-14T03:05:09.349Z,96019.78
2023-05-14T03:06:10.950Z,96016.28
2023-05-14T03:07:12.448Z,96015.28
2023-05-14T03:08:13.918Z,96009.75
2023-05-14T03:09:15.419Z,96016.56
2023-05-14T03:10:16.989Z,96015.53
2023-05-14T03:11:18.574Z,96022.50
2023-05-14T03:12:21.015Z,96022.16
2023-05-14T03:13:22.516Z,96015.16
2023-05-14T03:14:24.046Z,96016.97
2023-05-14T03:15:25.655Z,96022.97
2023-05-14T03:16:27.531Z,96013.97
2023-05-14T03:17:29.148Z,96023.56
2023-05-14T03:18:33.295Z,96020.91
2023-05-14T03:19:34.786Z,96016.81
2023-05-14T03:20:36.477Z,96021.31
2023-05-14T03:21:38.186Z,96016.44
2023-05-14T03:22:39.728Z,96019.09
2023-05-14T03:23:41.226Z,96011.28
2023-05-14T03:24:42.699Z,96016.44
2023-05-14T03:25:44.157Z,96017.03
2023-05-14T03:26:45.683Z,96015.22
2023-05-14T03:27:48.197Z,96006.38
2023-05-14T03:28:51.342Z,96010.50
2023-05-14T03:29:52.816Z,96011.53
2023-05-14T03:30:54.606Z,96009.91
2023-05-14T03:31:56.236Z,96006.38
2023-05-14T03:32:57.986Z,96011.16
2023-05-14T03:33:59.597Z,96017.50
2023-05-14T03:35:01.282Z,96013.19
2023-05-14T03:36:02.864Z,96005.38
2023-05-14T03:37:05.744Z,96011.53
2023-05-14T03:38:07.741Z,96010.72
2023-05-14T03:39:09.749Z,96013.19
2023-05-14T03:40:11.679Z,96016.50
2023-05-14T03:41:13.219Z,96013.19
2023-05-14T03:42:14.762Z,96012.16
2023-05-14T03:43:16.394Z,96013.38
2023-05-14T03:44:18.278Z,96015.22
2023-05-14T03:45:20.274Z,96015.84
2023-05-14T03:46:21.819Z,96017.50
2023-05-14T03:47:23.571Z,96013.97
2023-05-14T03:48:25.440Z,96014.56
2023-05-14T03:49:27.244Z,96009.91
2023-05-14T03:50:29.532Z,96014.38
2023-05-14T03:51:31.771Z,96015.22
2023-05-14T03:52:33.586Z,96015.25
2023-05-14T03:53:37.757Z,96007.22
2023-05-14T03:54:41.131Z,96008.03
2023-05-14T03:55:42.678Z,96015.84
2023-05-14T03:56:46.231Z,96012.97
2023-05-14T03:57:48.886Z,96011.53
2023-05-14T03:58:50.391Z,96007.03
2023-05-14T03:59:51.929Z,96012.16
2023-05-14T04:00:54.445Z,96011.97
2023-05-14T04:01:56.095Z,96005.44
2023-05-14T04:02:57.661Z,96009.31
2023-05-14T04:03:59.306Z,96013.81
2023-05-14T04:05:00.992Z,96011.59
2023-05-14T04:06:02.591Z,96008.72
2023-05-14T04:07:04.290Z,96003.59
2023-05-14T04:08:05.841Z,96006.44
2023-05-14T04:09:07.464Z,96014.25
2023-05-14T04:10:10.070Z,96010.56
2023-05-14T04:11:12.005Z,96009.56
2023-05-14T04:12:13.541Z,96013.06
2023-05-14T04:13:15.790Z,96005.69
2023-05-14T04:14:18.198Z,96008.38
2023-05-14T04:15:20.033Z,96010.38
2023-05-14T04:16:21.538Z,96012.66
2023-05-14T04:17:23.085Z,96010.38
2023-05-14T04:18:25.171Z,96010.97
2023-05-14T04:19:27.000Z,96010.56
2023-05-14T04:20:28.676Z,96009.75
2023-05-14T04:21:30.250Z,96005.44
2023-05-14T04:22:32.154Z,96006.91
2023-05-14T04:23:33.780Z,96001.38
2023-05-14T04:24:35.267Z,96010.19
2023-05-14T04:25:36.722Z,96005.69
2023-05-14T04:26:38.401Z,96003.03
2023-05-14T04:27:40.191Z,96004.47
2023-05-14T04:28:41.690Z,96003.28
2023-05-14T04:29:43.121Z,95999.63
2023-05-14T04:30:45.617Z,96002.09
2023-05-14T04:31:49.377Z,96003.94
2023-05-14T04:32:51.580Z,95999.88
2023-05-14T04:33:53.085Z,95999.41
2023-05-14T04:34:54.642Z,95997.59
2023-05-14T04:35:56.147Z,95997.19
2023-05-14T04:36:57.601Z,96002.34
2023-05-14T04:37:59.266Z,95990.66
2023-05-14T04:39:00.740Z,95996.81
2023-05-14T04:40:02.713Z,95995.78
2023-05-14T04:41:04.609Z,95999.28
2023-05-14T04:42:06.808Z,95998.88
2023-05-14T04:43:08.392Z,95996.41
2023-05-14T04:44:09.833Z,95995.41
2023-05-14T04:45:13.410Z,95992.75
2023-05-14T04:46:15.536Z,95988.03
2023-05-14T04:47:17.674Z,95998.31
2023-05-14T04:48:19.216Z,95992.16
2023-05-14T04:49:21.799Z,95992.59
2023-05-14T04:50:23.421Z,95994.25
2023-05-14T04:51:25.081Z,96005.13
2023-05-14T04:52:26.544Z,95999.19
2023-05-14T04:53:28.040Z,95997.94
2023-05-14T04:54:29.828Z,96001.03
2023-05-14T04:55:31.479Z,96003.72
2023-05-14T04:56:32.947Z,96002.47
2023-05-14T04:57:34.414Z,96000.66
2023-05-14T04:58:35.885Z,96003.31
2023-05-14T04:59:37.705Z,96008.66
2023-05-14T05:00:40.111Z,96005.34
2023-05-14T05:01:41.677Z,95997.34
2023-05-14T05:02:43.597Z,96002.47
2023-05-14T05:03:45.181Z,96000.25
2023-05-14T05:04:47.158Z,96001.91
2023-05-14T05:05:48.631Z,96004.38
2023-05-14T05:06:50.862Z,96000.06
2023-05-14T05:07:52.394Z,95997.84
2023-05-14T05:08:53.887Z,96003.16
2023-05-14T05:09:55.423Z,96005.84
2023-05-14T05:10:56.873Z,96008.50
2023-05-14T05:11:58.455Z,96001.13
2023-05-14T05:13:00.395Z,95998.22
2023-05-14T05:14:01.951Z,95993.47
2023-05-14T05:15:03.704Z,95994.91
2023-05-14T05:16:05.732Z,95989.59
2023-05-14T05:17:07.307Z,95990.03
2023-05-14T05:18:08.950Z,95996.44
2023-05-14T05:19:10.652Z,95996.84
2023-05-14T05:20:13.268Z,95992.16
2023-05-14T05:21:14.784Z,95993.81
2023-05-14T05:22:16.334Z,95995.47
2023-05-14T05:23:17.830Z,95996.13
2023-05-14T05:24:19.322Z,95992.03
2023-05-14T05:25:20.851Z,95990.81
2023-05-14T05:26:22.389Z,95992.66
2023-05-14T05:27:23.910Z,95996.00
2023-05-14T05:28:25.387Z,95993.16
2023-05-14T05:29:27.059Z,95983.09
2023-05-14T05:30:28.568Z,95991.97
2023-05-14T05:31:31.274Z,95995.06
2023-05-14T05:32:32.800Z,95992.66
2023-05-14T05:33:35.108Z,95984.88
2023-05-14T05:34:36.789Z,95997.22
2023-05-14T05:35:38.261Z,95986.53
2023-05-14T05:36:39.712Z,95996.19
2023-05-14T05:37:42.346Z,95994.59
2023-05-14T05:38:43.820Z,95988.84
2023-05-14T05:39:45.664Z,95986.56
2023-05-14T05:40:47.880Z,95987.81
2023-05-14T05:41:49.357Z,95989.84
2023-05-14T05:42:50.845Z,95985.94
2023-05-14T05:43:52.359Z,95994.59
2023-05-14T05:44:53.870Z,95987.78
2023-05-14T05:45:55.476Z,95987.53
2023-05-14T05:46:57.807Z,95979.53
2023-05-14T05:47:59.464Z,95985.44
2023-05-14T05:49:01.036Z,95986.50
2023-05-14T05:50:02.586Z,95981.09
2023-05-14T05:51:04.241Z,95982.75
2023-05-14T05:52:05.860Z,95984.00
2023-05-14T05:53:07.646Z,95987.63
2023-05-14T05:54:09.110Z,95978.63
2023-05-14T05:55:10.859Z,95982.31
2023-05-14T05:56:12.318Z,95982.31
2023-05-14T05:57:13.804Z,95980.06
2023-05-14T05:58:17.399Z,95979.47
2023-05-14T05:59:18.905Z,95978.63
2023-05-14T06:00:20.895Z,95980.31
2023-05-14T06:01:22.439Z,95977.41
2023-05-14T06:02:25.202Z,95986.66
2023-05-14T06:03:27.111Z,95984.00
2023-05-14T06:04:28.658Z,95987.31
2023-05-14T06:05:30.243Z,95983.19
2023-05-14T06:06:32.761Z,95985.66
2023-05-14T06:07:34.527Z,95986.47
2023-05-14T06:08:36.037Z,95985.25
2023-05-14T06:09:37.616Z,95989.16
2023-05-14T06:10:39.110Z,95991.63
2023-05-14T06:11:40.586Z,95992.47
2023-05-14T06:12:42.095Z,95995.53
2023-05-14T06:13:43.803Z,95990.66
2023-05-14T06:14:45.326Z,95990.22
2023-05-14T06:15:46.933Z,95999.88
2023-05-14T06:16:48.407Z,95997.81
2023-05-14T06:17:50.046Z,95994.94
2023-05-14T06:18:52.728Z,95993.53
2023-05-14T06:19:54.360Z,95995.16
2023-05-14T06:20:56.913Z,95993.31
2023-05-14T06:21:58.397Z,95998.88
2023-05-14T06:22:59.862Z,96001.13
2023-05-14T06:24:01.563Z,96001.97
2023-05-14T06:25:03.434Z,96008.75
2023-05-14T06:26:04.917Z,96001.34
2023-05-14T06:27:06.617Z,95997.25
2023-05-14T06:28:08.396Z,95996.03
2023-05-14T06:29:09.842Z,96001.59
2023-05-14T06:30:12.048Z,95997.50
2023-05-14T06:31:13.738Z,95998.13
2023-05-14T06:32:15.698Z,95998.34
2023-05-14T06:33:19.338Z,95997.28
2023-05-14T06:34:22.031Z,96003.84
2023-05-14T06:35:23.852Z,96007.94
2023-05-14T06:36:25.489Z,96009.16
2023-05-14T06:37:27.015Z,96007.50
2023-05-14T06:38:28.510Z,96005.84
2023-05-14T06:39:29.996Z,95998.88
2023-05-14T06:40:31.989Z,95992.66
2023-05-14T06:41:33.530Z,96000.81
2023-05-14T06:42:34.990Z,95998.56
2023-05-14T06:43:37.011Z,96001.03
2023-05-14T06:44:38.486Z,95998.38
2023-05-14T06:45:39.933Z,95998.59
2023-05-14T06:46:41.531Z,95992.25
2023-05-14T06:47:43.063Z,95995.94
2023-05-14T06:48:44.633Z,95998.41
2023-05-14T06:49:46.281Z,95999.88
2023-05-14T06:50:49.315Z,95994.94
2023-05-14T06:51:50.857Z,95997.84
2023-05-14T06:52:52.379Z,95993.13
2023-05-14T06:53:55.405Z,95991.50
2023-05-14T06:54:56.855Z,95999.16
2023-05-14T06:55:58.379Z,95998.13
2023-05-14T06:56:59.951Z,95991.97
2023-05-14T06:58:01.674Z,95987.91
2023-05-14T06:59:03.192Z,95989.53
2023-05-14T07:00:05.593Z,95986.28
2023-05-14T07:01:07.211Z,95987.31
2023-05-14T07:02:08.699Z,95986.94
2023-05-14T07:03:10.327Z,95985.69
2023-05-14T07:04:12.065Z,95983.84
2023-05-14T07:05:13.545Z,95988.16
2023-05-14T07:06:15.292Z,95980.09
2023-05-14T07:07:20.500Z,95987.09
2023-05-14T07:08:22.031Z,95986.94
2023-05-14T07:09:23.487Z,95987.53
2023-05-14T07:10:25.718Z,95990.84
2023-05-14T07:11:27.714Z,95987.13
2023-05-14T07:12:29.194Z,95991.47
2023-05-14T07:13:30.708Z,95984.47
2023-05-14T07:14:32.172Z,95980.38
2023-05-14T07:15:33.852Z,95976.03
2023-05-14T07:16:36.006Z,95974.38
2023-05-14T07:17:37.774Z,95978.72
2023-05-14T07:18:39.455Z,95973.16
2023-05-14T07:19:41.021Z,95974.56
2023-05-14T07:20:42.494Z,95979.09
2023-05-14T07:21:43.956Z,95982.38
2023-05-14T07:22:45.500Z,95979.69
2023-05-14T07:23:46.947Z,95975.19
2023-05-14T07:24:49.258Z,95982.16
2023-05-14T07:25:50.861Z,95977.44
2023-05-14T07:26:52.338Z,95981.56
2023-05-14T07:27:53.862Z,95975.19
2023-05-14T07:28:55.848Z,95973.91
2023-05-14T07:29:57.367Z,95973.09
2023-05-14T07:30:59.443Z,95973.53
2023-05-14T07:32:01.573Z,95977.59
2023-05-14T07:33:03.136Z,95973.91
2023-05-14T07:34:04.602Z,95972.44
2023-05-14T07:35:07.156Z,95973.06
2023-05-14T07:36:08.950Z,95977.59
2023-05-14T07:37:10.710Z,95976.56
2023-05-14T07:38:12.269Z,95968.53
2023-05-14T07:39:13.928Z,95972.66
2023-05-14T07:40:15.637Z,95965.84
2023-05-14T07:41:17.266Z,95966.66
2023-05-14T07:42:31.610Z,95965.19
2023-05-14T07:43:33.912Z,95969.53
2023-05-14T07:44:35.441Z,95967.06
2023-05-14T07:45:38.598Z,95968.53
2023-05-14T07:46:40.956Z,95970.19
2023-05-14T07:47:42.601Z,95967.50
2023-05-14T07:48:44.178Z,95965.63
2023-05-14T07:49:45.718Z,95967.06
2023-05-14T07:50:48.536Z,95962.94
2023-05-14T07:51:50.147Z,95967.06
2023-05-14T07:52:51.804Z,95965.63
2023-05-14T07:53:54.468Z,95962.28
2023-05-14T07:54:56.216Z,95968.66
2023-05-14T07:55:58.309Z,95964.31
2023-05-14T07:56:59.821Z,95959.41
2023-05-14T07:58:01.338Z,95959.69
2023-05-14T07:59:02.819Z,95959.19
2023-05-14T08:00:08.311Z,95959.78
2023-05-14T08:01:15.970Z,95958.66
2023-05-14T08:02:17.603Z,95967.44
2023-05-14T08:03:19.324Z,95958.13
2023-05-14T08:04:20.933Z,95962.25
2023-05-14T08:05:22.666Z,95962.22
2023-05-14T08:06:27.436Z,95960.69
2023-05-14T08:07:30.032Z,95967.69
2023-05-14T08:08:31.706Z,95962.78
2023-05-14T08:09:33.243Z,95958.78
2023-05-14T08:10:34.780Z,95964.53
2023-05-14T08:11:36.363Z,95968.28
2023-05-14T08:12:38.720Z,95962.47
2023-05-14T08:13:40.510Z,95964.88
2023-05-14T08:14:42.020Z,95961.06
2023-05-14T08:15:43.473Z,95960.41
2023-05-14T08:16:44.982Z,95961.56
2023-05-14T08:17:46.923Z,95964.66
2023-05-14T08:18:48.414Z,95957.09
2023-05-14T08:19:50.008Z,95964.94
2023-05-14T08:20:51.709Z,95962.09
2023-05-14T08:21:53.697Z,95956.50
2023-05-14T08:22:56.290Z,95958.50
2023-05-14T08:23:57.754Z,95958.09
2023-05-14T08:25:00.877Z,95954.69
2023-05-14T08:26:02.874Z,95956.34
2023-05-14T08:27:04.886Z,95965.19
2023-05-14T08:28:07.279Z,95961.78
2023-05-14T08:29:10.674Z,95957.06
2023-05-14T08:30:13.275Z,95953.00
2023-05-14T08:31:14.892Z,95950.41
2023-05-14T08:32:23.443Z,95952.06
2023-05-14T08:33:25.708Z,95952.56
2023-05-14T08:34:28.116Z,95953.31
2023-05-14T08:35:29.685Z,95948.03
2023-05-14T08:36:31.524Z,95946.69
2023-05-14T08:37:33.054Z,95945.50
2023-05-14T08:38:34.547Z,95949.28
2023-05-14T08:39:36.029Z,95942.94
2023-05-14T08:40:37.581Z,95952.63
2023-05-14T08:41:40.383Z,95947.56
2023-05-14T08:42:43.068Z,95947.22
2023-05-14T08:43:50.677Z,95941.91
2023-05-14T08:45:03.183Z,95945.19
2023-05-14T08:46:06.778Z,95941.66
2023-05-14T08:47:08.913Z,95946.13
2023-05-14T08:48:14.680Z,95944.34
2023-05-14T08:49:42.960Z,95940.81
2023-05-14T08:50:44.556Z,95940.16
2023-05-14T08:51:48.657Z,95940.13
2023-05-14T08:52:50.484Z,95938.59
2023-05-14T08:53:52.245Z,95940.19
2023-05-14T08:54:54.100Z,95935.25
2023-05-14T08:55:55.651Z,95939.75
2023-05-14T08:56:57.288Z,95934.97
2023-05-14T08:57:59.519Z,95931.91
2023-05-14T08:59:00.993Z,95934.63
2023-05-14T09:00:13.107Z,95937.00
2023-05-14T09:01:14.931Z,95935.78
2023-05-14T09:02:17.633Z,95938.09
2023-05-14T09:03:19.475Z,95934.97
2023-05-14T09:04:23.100Z,95934.75
2023-05-14T09:05:24.814Z,95938.22
2023-05-14T09:06:27.174Z,95939.03
2023-05-14T09:07:28.685Z,95938.91
2023-05-14T09:08:30.511Z,95938.84
2023-05-14T09:09:32.506Z,95935.56
2023-05-14T09:10:33.962Z,95941.03
2023-05-14T09:11:41.527Z,95937.13
2023-05-14T09:12:43.006Z,95932.41
2023-05-14T09:13:44.530Z,95934.19
2023-05-14T09:14:47.403Z,95932.84
2023-05-14T09:15:51.459Z,95935.22
2023-05-14T09:16:54.755Z,95938.28
2023-05-14T09:17:56.786Z,95931.47
2023-05-14T09:18:58.555Z,95928.91
2023-05-14T09:20:00.773Z,95924.34
2023-05-14T09:21:02.266Z,95929.47
2023-05-14T09:22:09.190Z,95924.34
2023-05-14T09:23:10.809Z,95926.59
2023-05-14T09:24:23.881Z,95934.16
2023-05-14T09:25:31.977Z,95922.03
2023-05-14T09:26:34.947Z,95921.06
2023-05-14T09:27:36.644Z,95927.69
2023-05-14T09:28:44.639Z,95919.91
2023-05-14T09:29:46.112Z,95922.78
2023-05-14T09:30:52.229Z,95916.47
2023-05-14T09:31:54.876Z,95916.88
2023-05-14T09:32:56.905Z,95921.31
2023-05-14T09:33:59.945Z,95916.06
2023-05-14T09:35:13.188Z,95924.91
2023-05-14T09:36:14.618Z,95911.09
2023-05-14T09:37:16.347Z,95916.00
2023-05-14T09:38:17.824Z,95916.00
2023-05-14T09:39:19.574Z,95914.50
2023-05-14T09:40:23.152Z,95910.81
2023-05-14T09:41:25.590Z,95912.22
2023-05-14T09:42:27.391Z,95913.13
2023-05-14T09:43:28.829Z,95913.34
2023-05-14T09:44:30.390Z,95907.13
2023-05-14T09:45:31.816Z,95910.66
2023-05-14T09:46:33.312Z,95914.06
2023-05-14T09:47:35.305Z,95907.78
2023-05-14T09:48:36.903Z,95913.13
2023-05-14T09:49:39.701Z,95910.81
2023-05-14T09:50:45.311Z,95909.22
2023-05-14T09:51:46.840Z,95909.25
2023-05-14T09:52:48.333Z,95911.00
2023-05-14T09:53:52.858Z,95908.59
2023-05-14T09:54:54.372Z,95905.56
2023-05-14T09:55:56.022Z,95907.97
2023-05-14T09:56:57.522Z,95905.97
2023-05-14T09:57:59.268Z,95913.56
2023-05-14T09:59:01.200Z,95914.00
2023-05-14T10:00:03.010Z,95908.41
2023-05-14T10:01:06.588Z,95905.22
2023-05-14T10:02:24.272Z,95898.66
2023-05-14T10:03:29.101Z,95902.28
2023-05-14T10:04:30.667Z,95903.94
2023-05-14T10:05:36.557Z,95900.84
2023-05-14T10:06:39.418Z,95904.56
2023-05-14T10:07:47.991Z,95895.13
2023-05-14T10:08:54.761Z,95894.63
2023-05-14T10:10:01.983Z,95893.00
2023-05-14T10:11:11.376Z,95891.31
2023-05-14T10:12:16.962Z,95890.53
2023-05-14T10:13:24.039Z,95891.97
2023-05-14T10:14:33.490Z,95890.53
2023-05-14T10:15:48.799Z,95897.00
2023-05-14T10:16:51.687Z,95895.31
2023-05-14T10:17:58.778Z,95885.28
2023-05-14T10:19:11.268Z,95900.97
2023-05-14T10:20:16.858Z,95898.78
2023-05-14T10:21:21.752Z,95906.44
2023-05-14T10:22:25.890Z,95897.66
2023-05-14T10:23:27.677Z,95901.31
2023-05-14T10:24:29.680Z,95903.38
2023-05-14T10:25:31.558Z,95892.75
2023-05-14T10:26:39.205Z,95900.59
2023-05-14T10:27:42.349Z,95905.03
2023-05-14T10:28:44.279Z,95888.66
2023-05-14T10:29:56.015Z,95893.50
2023-05-14T10:30:59.216Z,95898.53
2023-05-14T10:32:04.851Z,95886.84
2023-05-14T10:33:12.482Z,95894.38
2023-05-14T10:34:44.020Z,95893.56
2023-05-14T10:36:03.404Z,95895.56
2023-05-14T10:37:07.583Z,95900.19
2023-05-14T10:38:09.291Z,95888.66
2023-05-14T10:39:10.918Z,95887.88
2023-05-14T10:40:14.354Z,95892.19
2023-05-14T10:41:17.795Z,95889.13
2023-05-14T10:42:22.075Z,95895.75
2023-05-14T10:43:27.633Z,95886.09
2023-05-14T10:44:29.287Z,95891.44
2023-05-14T10:45:30.921Z,95891.66
2023-05-14T10:46:32.710Z,95899.03
2023-05-14T10:47:39.551Z,95891.59
2023-05-14T10:48:43.090Z,95888.66
2023-05-14T10:49:48.984Z,95886.81
2023-05-14T10:50:51.932Z,95888.78
2023-05-14T10:51:54.073Z,95881.19
2023-05-14T10:52:57.071Z,95881.72
2023-05-14T10:54:01.513Z,95882.44
2023-05-14T10:55:07.654Z,95881.19
2023-05-14T10:56:11.370Z,95875.06
2023-05-14T10:57:13.940Z,95874.31
2023-05-14T10:58:16.067Z,95870.34
2023-05-14T10:59:17.866Z,95880.09
2023-05-14T11:00:19.495Z,95875.03
2023-05-14T11:01:24.332Z,95875.59
2023-05-14T11:02:30.758Z,95864.25
2023-05-14T11:03:38.546Z,95870.63
2023-05-14T11:04:41.626Z,95872.78
2023-05-14T11:05:44.081Z,95871.91
2023-05-14T11:06:47.475Z,95865.53
2023-05-14T11:07:50.223Z,95871.06
2023-05-14T11:08:52.684Z,95863.34
2023-05-14T11:09:59.751Z,95860.44
2023-05-14T11:11:02.059Z,95865.50
2023-05-14T11:12:03.737Z,95856.88
2023-05-14T11:13:06.034Z,95860.09
2023-05-14T11:14:09.579Z,95860.59
2023-05-14T11:15:19.300Z,95852.59
2023-05-14T11:16:24.077Z,95847.09
2023-05-14T11:17:27.084Z,95852.31
2023-05-14T11:18:33.572Z,95847.94
2023-05-14T11:19:35.212Z,95847.59
2023-05-14T11:20:37.596Z,95855.78
2023-05-14T11:21:39.144Z,95844.38
2023-05-14T11:22:42.172Z,95839.84
2023-05-14T11:23:46.679Z,95843.81
2023-05-14T11:24:48.759Z,95846.44
2023-05-14T11:25:52.269Z,95844.81
2023-05-14T11:26:55.979Z,95840.53
2023-05-14T11:28:00.638Z,95838.47
2023-05-14T11:29:02.410Z,95831.47
2023-05-14T11:30:04.588Z,95831.38
2023-05-14T11:31:06.279Z,95831.09
2023-05-14T11:32:07.869Z,95832.47
2023-05-14T11:33:09.521Z,95839.81
2023-05-14T11:34:11.088Z,95832.13
2023-05-14T11:35:13.570Z,95837.88
2023-05-14T11:36:15.140Z,95841.41
2023-05-14T11:37:16.993Z,95834.56
2023-05-14T11:38:21.232Z,95830.09
2023-05-14T11:39:22.773Z,95841.16
2023-05-14T11:40:24.623Z,95835.41
2023-05-14T11:41:28.061Z,95840.38
2023-05-14T11:42:29.650Z,95832.22
2023-05-14T11:43:31.287Z,95836.31
2023-05-14T11:44:32.816Z,95834.84
2023-05-14T11:45:34.566Z,95840.16
2023-05-14T11:46:36.232Z,95836.59
2023-05-14T11:47:38.033Z,95838.84
2023-05-14T11:48:39.561Z,95831.06
2023-05-14T11:49:41.180Z,95831.75
2023-05-14T11:50:46.398Z,95835.88
2023-05-14T11:51:47.895Z,95827.00
2023-05-14T11:52:50.800Z,95833.75
2023-05-14T11:53:54.171Z,95826.41
2023-05-14T11:54:55.673Z,95819.19
2023-05-14T11:56:00.041Z,95823.88
2023-05-14T11:57:07.896Z,95825.69
2023-05-14T11:58:09.638Z,95829.00
2023-05-14T11:59:11.625Z,95821.19
2023-05-14T12:00:14.573Z,95827.59
2023-05-14T12:01:16.168Z,95819.38
2023-05-14T12:02:18.808Z,95819.81
2023-05-14T12:03:25.987Z,95814.50
2023-05-14T12:04:29.364Z,95812.22
2023-05-14T12:05:31.092Z,95818.09
2023-05-14T12:06:32.770Z,95812.97
2023-05-14T12:07:34.375Z,95813.84
2023-05-14T12:08:37.596Z,95814.41
2023-05-14T12:09:44.221Z,95811.97
2023-05-14T12:10:47.010Z,95809.84
2023-05-14T12:11:50.658Z,95812.38
2023-05-14T12:12:52.197Z,95814.81
2023-05-14T12:13:53.966Z,95814.09
2023-05-14T12:14:56.083Z,95808.69
2023-05-14T12:15:59.647Z,95816.13
2023-05-14T12:17:01.916Z,95810.94
2023-05-14T12:18:03.866Z,95809.53